createdAt,value
2017-12-20T00:00:24.881Z,1.20
2017-12-20T00:02:53.034Z,1.20
2017-12-20T00:05:20.212Z,1.20
2017-12-20T00:07:47.455Z,1.20
2017-12-20T00:10:15.095Z,1.20
2017-12-20T00:12:41.682Z,1.20
2017-12-20T00:15:09.033Z,1.10
2017-12-20T00:17:36.962Z,1.10
2017-12-20T00:20:04.079Z,1.10
2017-12-20T00:22:31.498Z,1.10
2017-12-20T00:24:59.051Z,1.10
2017-12-20T00:27:26.200Z,1.10
2017-12-20T00:29:53.242Z,1.10
2017-12-20T00:32:21.019Z,1.10
2017-12-20T00:34:48.398Z,1.10
2017-12-20T00:37:15.258Z,1.10
2017-12-20T00:39:41.897Z,1.10
2017-12-20T00:42:08.795Z,1.30
2017-12-20T00:44:35.455Z,1.20
2017-12-20T00:47:02.434Z,1.20
2017-12-20T00:49:29.392Z,1.20
2017-12-20T00:51:56.935Z,1.30
2017-12-20T00:54:24.087Z,1.20
2017-12-20T00:57:05.602Z,1.20
2017-12-20T00:59:33.198Z,1.30
2017-12-20T01:01:59.997Z,1.20
2017-12-20T01:04:26.513Z,1.40
2017-12-20T01:06:53.518Z,1.40
2017-12-20T01:09:21.251Z,1.50
2017-12-20T01:11:48.500Z,1.50
2017-12-20T01:14:15.768Z,1.40
2017-12-20T01:16:42.506Z,1.40
2017-12-20T01:19:09.554Z,1.40
2017-12-20T01:21:36.699Z,1.40
2017-12-20T01:24:03.775Z,1.50
2017-12-20T01:26:31.655Z,1.50
2017-12-20T01:28:58.395Z,1.50
2017-12-20T01:31:25.195Z,1.50
2017-12-20T01:33:51.766Z,1.50
2017-12-20T01:36:18.295Z,1.50
2017-12-20T01:38:45.450Z,1.50
2017-12-20T01:41:12.131Z,1.50
2017-12-20T01:43:39.568Z,1.50
2017-12-20T01:46:07.237Z,1.50
2017-12-20T01:48:34.108Z,1.50
2017-12-20T01:51:01.894Z,1.50
2017-12-20T01:53:28.878Z,1.50
2017-12-20T01:55:55.698Z,1.60
2017-12-20T01:58:22.984Z,1.50
2017-12-20T02:00:49.963Z,1.50
2017-12-20T02:03:16.803Z,1.50
2017-12-20T02:05:43.631Z,1.50
2017-12-20T02:08:11.015Z,1.50
2017-12-20T02:10:37.731Z,1.50
2017-12-20T02:13:04.602Z,1.50
2017-12-20T02:15:31.462Z,1.50
2017-12-20T02:17:58.502Z,1.50
2017-12-20T02:20:25.482Z,1.50
2017-12-20T02:22:52.418Z,1.50
2017-12-20T02:25:19.686Z,1.50
2017-12-20T02:27:46.531Z,1.50
2017-12-20T02:30:13.183Z,1.50
2017-12-20T02:32:39.675Z,1.40
2017-12-20T02:35:06.505Z,1.40
2017-12-20T02:37:33.234Z,1.40
2017-12-20T02:40:00.955Z,1.40
2017-12-20T02:42:27.949Z,1.40
2017-12-20T02:44:55.770Z,1.50
2017-12-20T02:47:22.355Z,1.30
2017-12-20T02:49:50.698Z,1.50
2017-12-20T02:52:17.523Z,1.50
2017-12-20T02:54:44.169Z,1.50
2017-12-20T02:57:11.319Z,1.50
2017-12-20T02:59:38.219Z,1.50
2017-12-20T03:02:06.058Z,1.50
2017-12-20T03:04:33.135Z,1.40
2017-12-20T03:07:00.474Z,1.60
2017-12-20T03:09:27.405Z,1.50
2017-12-20T03:11:54.483Z,1.60
2017-12-20T03:14:21.039Z,1.50
2017-12-20T03:16:47.772Z,1.60
2017-12-20T03:19:14.842Z,1.50
2017-12-20T03:21:42.394Z,1.50
2017-12-20T03:24:09.171Z,1.50
2017-12-20T03:26:36.588Z,1.60
2017-12-20T03:29:03.860Z,1.60
2017-12-20T03:31:31.019Z,1.60
2017-12-20T03:33:57.851Z,1.60
2017-12-20T03:36:24.590Z,1.60
2017-12-20T03:38:51.019Z,1.60
2017-12-20T03:41:18.294Z,1.60
2017-12-20T03:43:45.021Z,1.70
2017-12-20T03:46:12.218Z,1.60
2017-12-20T03:48:40.400Z,1.40
2017-12-20T03:51:07.819Z,1.50
2017-12-20T03:53:34.899Z,1.50
2017-12-20T03:56:01.419Z,1.50
2017-12-20T03:58:28.250Z,1.60
2017-12-20T04:00:55.021Z,1.60
2017-12-20T04:03:22.062Z,1.60
2017-12-20T04:05:49.006Z,1.60
2017-12-20T04:08:16.285Z,1.70
2017-12-20T04:10:43.674Z,1.70
2017-12-20T04:13:11.932Z,1.70
2017-12-20T04:15:38.338Z,1.60
2017-12-20T04:18:05.202Z,1.70
2017-12-20T04:20:32.122Z,1.70
2017-12-20T04:22:59.075Z,1.70
2017-12-20T04:25:25.735Z,1.70
2017-12-20T04:27:52.614Z,1.70
2017-12-20T04:30:19.746Z,1.60
2017-12-20T04:32:46.978Z,1.60
2017-12-20T04:35:13.944Z,1.60
2017-12-20T04:37:40.510Z,1.70
2017-12-20T04:40:07.551Z,1.60
2017-12-20T04:42:34.503Z,1.60
2017-12-20T04:45:01.454Z,1.70
2017-12-20T04:47:28.261Z,1.70
2017-12-20T04:49:55.270Z,1.80
2017-12-20T04:52:22.562Z,1.80
2017-12-20T04:54:50.190Z,1.80
2017-12-20T04:57:16.966Z,1.80
2017-12-20T04:59:44.698Z,1.90
2017-12-20T05:02:11.710Z,1.90
2017-12-20T05:04:38.513Z,1.90
2017-12-20T05:09:58.052Z,1.90
2017-12-20T05:12:24.916Z,1.90
2017-12-20T05:14:52.335Z,1.90
2017-12-20T05:17:18.902Z,1.80
2017-12-20T05:19:45.724Z,1.80
2017-12-20T05:22:12.676Z,1.90
2017-12-20T05:24:39.675Z,1.80
2017-12-20T05:27:06.531Z,1.70
2017-12-20T05:29:33.684Z,1.80
2017-12-20T05:32:08.598Z,1.90
2017-12-20T05:34:35.606Z,1.90
2017-12-20T05:37:03.000Z,1.90
2017-12-20T05:39:29.435Z,1.90
2017-12-20T05:41:56.718Z,1.90
2017-12-20T05:44:23.424Z,1.90
2017-12-20T05:46:50.395Z,1.90
2017-12-20T05:49:16.791Z,1.90
2017-12-20T05:51:44.528Z,1.90
2017-12-20T05:54:11.094Z,1.90
2017-12-20T05:56:38.319Z,1.90
2017-12-20T05:59:05.191Z,1.90
2017-12-20T06:01:32.179Z,1.90
2017-12-20T06:03:58.872Z,1.90
2017-12-20T06:06:26.016Z,1.90
2017-12-20T06:08:53.170Z,1.90
2017-12-20T06:11:22.117Z,1.90
2017-12-20T06:13:49.045Z,1.90
2017-12-20T06:16:17.075Z,1.80
2017-12-20T06:18:43.679Z,1.90
2017-12-20T06:21:11.075Z,1.90
2017-12-20T06:23:37.726Z,1.90
2017-12-20T06:26:04.598Z,1.90
2017-12-20T06:28:31.105Z,1.90
2017-12-20T06:30:59.319Z,1.90
2017-12-20T06:33:25.821Z,1.90
2017-12-20T06:35:52.895Z,1.90
2017-12-20T06:38:19.670Z,1.90
2017-12-20T06:40:47.520Z,1.90
2017-12-20T06:43:14.562Z,1.90
2017-12-20T06:45:41.153Z,2.00
2017-12-20T06:48:10.861Z,1.90
2017-12-20T06:50:38.710Z,1.90
2017-12-20T06:53:05.646Z,1.90
2017-12-20T06:55:32.137Z,1.90
2017-12-20T06:57:58.739Z,1.90
2017-12-20T07:00:25.831Z,1.90
2017-12-20T07:02:53.188Z,2.00
2017-12-20T07:05:20.225Z,1.90
2017-12-20T07:07:48.101Z,2.00
2017-12-20T07:10:15.827Z,2.00
2017-12-20T07:12:42.919Z,2.00
2017-12-20T07:15:10.269Z,2.00
2017-12-20T07:17:37.890Z,2.00
2017-12-20T07:20:04.476Z,2.00
2017-12-20T07:22:31.324Z,1.90
2017-12-20T07:24:59.232Z,2.00
2017-12-20T07:27:25.926Z,1.90
2017-12-20T07:29:52.631Z,2.00
2017-12-20T07:32:19.746Z,1.90
2017-12-20T07:34:47.600Z,2.00
2017-12-20T07:37:14.413Z,2.00
2017-12-20T07:39:41.306Z,2.00
2017-12-20T07:42:08.193Z,2.00
2017-12-20T07:44:35.398Z,2.00
2017-12-20T07:47:02.447Z,2.00
2017-12-20T07:49:29.283Z,2.00
2017-12-20T07:51:56.535Z,2.10
2017-12-20T07:54:23.194Z,2.10
2017-12-20T07:56:49.813Z,2.10
2017-12-20T07:59:17.298Z,2.10
2017-12-20T08:01:44.294Z,2.10
2017-12-20T08:04:11.417Z,2.20
2017-12-20T08:06:38.667Z,2.20
2017-12-20T08:09:06.425Z,2.20
2017-12-20T08:11:33.379Z,2.20
2017-12-20T08:14:00.193Z,2.30
2017-12-20T08:16:26.759Z,2.20
2017-12-20T08:18:53.906Z,2.20
2017-12-20T08:21:20.952Z,2.30
2017-12-20T08:23:47.855Z,2.40
2017-12-20T08:26:15.454Z,2.40
2017-12-20T08:28:50.798Z,2.40
2017-12-20T08:31:17.777Z,2.40
2017-12-20T08:33:44.843Z,2.50
2017-12-20T08:36:12.086Z,2.60
2017-12-20T08:38:38.625Z,2.60
2017-12-20T08:41:05.570Z,2.60
2017-12-20T08:43:32.839Z,2.70
2017-12-20T08:46:00.260Z,2.80
2017-12-20T08:48:27.444Z,2.80
2017-12-20T08:50:54.504Z,2.80
2017-12-20T08:53:21.306Z,2.90
2017-12-20T08:55:48.174Z,3.00
2017-12-20T08:58:15.077Z,3.00
2017-12-20T09:00:42.914Z,3.00
2017-12-20T09:03:10.069Z,3.00
2017-12-20T09:05:36.820Z,3.00
2017-12-20T09:08:03.780Z,3.10
2017-12-20T09:10:30.698Z,3.10
2017-12-20T09:12:57.397Z,3.20
2017-12-20T09:15:25.124Z,3.10
2017-12-20T09:17:52.464Z,3.10
2017-12-20T09:20:19.983Z,3.10
2017-12-20T09:22:48.152Z,2.80
2017-12-20T09:25:15.502Z,2.80
2017-12-20T09:27:42.159Z,2.80
2017-12-20T09:30:09.741Z,2.90
2017-12-20T09:32:38.605Z,2.80
2017-12-20T09:35:06.979Z,2.80
2017-12-20T09:37:34.212Z,3.00
2017-12-20T09:40:01.019Z,2.90
2017-12-20T09:42:28.294Z,3.00
2017-12-20T09:44:55.483Z,3.00
2017-12-20T09:47:22.259Z,3.10
2017-12-20T09:49:49.286Z,3.10
2017-12-20T09:52:15.909Z,3.20
2017-12-20T09:54:42.814Z,3.20
2017-12-20T09:57:10.438Z,3.30
2017-12-20T09:59:37.253Z,3.30
2017-12-20T10:02:04.255Z,3.30
2017-12-20T10:04:31.302Z,3.30
2017-12-20T10:06:58.086Z,3.30
2017-12-20T10:09:25.712Z,3.20
2017-12-20T10:11:52.728Z,3.30
2017-12-20T10:14:20.116Z,3.20
2017-12-20T10:16:47.193Z,3.30
2017-12-20T10:19:14.609Z,3.20
2017-12-20T10:21:41.993Z,3.20
2017-12-20T10:24:09.027Z,3.20
2017-12-20T10:26:36.429Z,3.30
2017-12-20T10:29:03.475Z,3.40
2017-12-20T10:31:31.310Z,3.30
2017-12-20T10:33:57.987Z,3.30
2017-12-20T10:36:25.843Z,3.40
2017-12-20T10:38:53.058Z,3.40
2017-12-20T10:41:22.159Z,3.30
2017-12-20T10:43:49.086Z,3.20
2017-12-20T10:46:16.735Z,3.20
2017-12-20T10:48:43.370Z,3.20
2017-12-20T10:51:10.306Z,3.20
2017-12-20T10:53:37.270Z,3.20
2017-12-20T10:56:04.323Z,3.40
2017-12-20T10:58:31.076Z,3.60
2017-12-20T11:00:58.030Z,4.00
2017-12-20T11:03:25.182Z,4.20
2017-12-20T11:05:51.918Z,4.20
2017-12-20T11:08:18.970Z,4.10
2017-12-20T11:10:47.332Z,4.10
2017-12-20T11:13:14.498Z,4.00
2017-12-20T11:15:42.074Z,3.90
2017-12-20T11:18:08.858Z,3.60
2017-12-20T11:20:35.464Z,3.60
2017-12-20T11:23:02.343Z,3.70
2017-12-20T11:25:29.528Z,3.60
2017-12-20T11:27:56.725Z,3.60
2017-12-20T11:30:23.361Z,3.70
2017-12-20T11:32:50.196Z,3.90
2017-12-20T11:35:16.987Z,4.00
2017-12-20T11:37:44.512Z,4.20
2017-12-20T11:40:11.487Z,4.20
2017-12-20T11:42:38.130Z,4.20
2017-12-20T11:45:05.887Z,4.20
2017-12-20T11:47:32.329Z,4.10
2017-12-20T11:49:59.577Z,4.20
2017-12-20T11:52:26.718Z,4.10
2017-12-20T11:54:53.459Z,4.10
2017-12-20T11:57:20.668Z,4.00
2017-12-20T11:59:47.684Z,4.00
2017-12-20T12:02:14.951Z,4.00
2017-12-20T12:04:42.120Z,4.10
2017-12-20T12:07:09.555Z,4.10
2017-12-20T12:09:36.192Z,4.10
2017-12-20T12:12:02.835Z,4.10
2017-12-20T12:14:31.892Z,4.20
2017-12-20T12:16:58.342Z,4.10
2017-12-20T12:19:25.321Z,4.20
2017-12-20T12:21:59.247Z,4.30
2017-12-20T12:24:25.943Z,4.40
2017-12-20T12:26:52.932Z,4.30
2017-12-20T12:29:19.698Z,4.40
2017-12-20T12:31:46.463Z,4.30
2017-12-20T12:34:14.260Z,4.20
2017-12-20T12:36:41.376Z,4.20
2017-12-20T12:39:08.932Z,4.20
2017-12-20T12:41:36.168Z,4.20
2017-12-20T12:44:02.926Z,4.20
2017-12-20T12:46:33.742Z,4.00
2017-12-20T12:49:00.506Z,4.00
2017-12-20T12:51:27.550Z,4.00
2017-12-20T12:53:54.269Z,4.10
2017-12-20T12:56:20.826Z,4.00
2017-12-20T12:58:48.062Z,4.00
2017-12-20T13:01:14.671Z,4.00
2017-12-20T13:03:42.440Z,3.90
2017-12-20T13:06:09.823Z,3.90
2017-12-20T13:08:37.018Z,3.80
2017-12-20T13:11:04.990Z,3.80
2017-12-20T13:13:31.851Z,3.80
2017-12-20T13:16:01.703Z,3.80
2017-12-20T13:18:28.312Z,3.90
2017-12-20T13:20:55.252Z,3.90
2017-12-20T13:23:22.502Z,3.80
2017-12-20T13:25:50.368Z,3.90
2017-12-20T13:28:16.988Z,3.90
2017-12-20T13:30:44.446Z,3.80
2017-12-20T13:33:11.946Z,3.80
2017-12-20T13:35:41.370Z,3.80
2017-12-20T13:38:08.406Z,3.70
2017-12-20T13:40:35.859Z,3.90
2017-12-20T13:43:02.551Z,3.90
2017-12-20T13:45:29.726Z,3.90
2017-12-20T13:47:56.914Z,3.80
2017-12-20T13:50:24.025Z,3.90
2017-12-20T13:52:51.023Z,3.90
2017-12-20T13:55:18.044Z,4.00
2017-12-20T13:57:46.222Z,4.00
2017-12-20T14:00:12.885Z,4.00
2017-12-20T14:02:40.022Z,3.90
2017-12-20T14:05:06.768Z,4.00
2017-12-20T14:07:35.147Z,3.90
2017-12-20T14:10:02.034Z,3.90
2017-12-20T14:12:29.018Z,3.90
2017-12-20T14:14:56.831Z,3.90
2017-12-20T14:17:23.726Z,3.90
2017-12-20T14:19:51.283Z,3.90
2017-12-20T14:22:18.419Z,3.90
2017-12-20T14:24:45.094Z,3.80
2017-12-20T14:27:12.686Z,3.80
2017-12-20T14:29:39.634Z,3.80
2017-12-20T14:32:06.423Z,3.80
2017-12-20T14:34:33.380Z,3.80
2017-12-20T14:37:00.063Z,3.80
2017-12-20T14:39:26.983Z,3.80
2017-12-20T14:41:53.722Z,3.90
2017-12-20T14:44:21.991Z,3.80
2017-12-20T14:46:50.226Z,3.90
2017-12-20T14:49:17.335Z,3.80
2017-12-20T14:51:44.083Z,3.80
2017-12-20T14:54:11.138Z,3.80
2017-12-20T14:56:38.076Z,3.80
2017-12-20T14:59:05.081Z,3.70
2017-12-20T15:01:32.155Z,3.70
2017-12-20T15:03:58.566Z,3.70
2017-12-20T15:06:25.598Z,3.70
2017-12-20T15:08:53.115Z,3.70
2017-12-20T15:11:22.244Z,3.70
2017-12-20T15:13:48.680Z,3.70
2017-12-20T15:16:15.833Z,3.70
2017-12-20T15:18:42.817Z,3.70
2017-12-20T15:21:11.384Z,3.70
2017-12-20T15:23:38.022Z,3.70
2017-12-20T15:26:05.056Z,3.60
2017-12-20T15:28:31.738Z,3.60
2017-12-20T15:30:59.576Z,3.60
2017-12-20T15:33:26.198Z,3.60
2017-12-20T15:35:53.471Z,3.60
2017-12-20T15:38:22.278Z,3.70
2017-12-20T15:40:50.590Z,3.60
2017-12-20T15:43:17.752Z,3.70
2017-12-20T15:45:45.670Z,3.50
2017-12-20T15:48:12.586Z,3.50
2017-12-20T15:50:39.974Z,3.60
2017-12-20T15:53:06.779Z,3.60
2017-12-20T15:55:34.231Z,3.60
2017-12-20T15:58:02.025Z,3.60
2017-12-20T16:00:28.970Z,3.60
2017-12-20T16:02:56.283Z,3.50
2017-12-20T16:05:23.139Z,3.50
2017-12-20T16:07:50.533Z,3.50
2017-12-20T16:10:17.329Z,3.50
2017-12-20T16:12:48.963Z,3.50
2017-12-20T16:15:15.942Z,3.50
2017-12-20T16:17:43.471Z,3.50
2017-12-20T16:20:10.465Z,3.60
2017-12-20T16:22:38.110Z,3.60
2017-12-20T16:25:05.107Z,3.60
2017-12-20T16:27:34.290Z,3.50
2017-12-20T16:30:01.504Z,3.50
2017-12-20T16:32:28.141Z,3.50
2017-12-20T16:34:55.501Z,3.60
2017-12-20T16:37:22.054Z,3.50
2017-12-20T16:39:50.065Z,3.50
2017-12-20T16:42:17.198Z,3.50
2017-12-20T16:44:45.755Z,3.50
2017-12-20T16:47:12.819Z,3.50
2017-12-20T16:49:39.404Z,3.60
2017-12-20T16:52:08.399Z,3.60
2017-12-20T16:54:35.660Z,3.50
2017-12-20T16:57:03.847Z,3.30
2017-12-20T16:59:31.549Z,3.30
2017-12-20T17:01:58.435Z,3.30
2017-12-20T17:04:26.378Z,3.40
2017-12-20T17:06:53.546Z,3.40
2017-12-20T17:09:21.337Z,3.40
2017-12-20T17:11:48.283Z,3.50
2017-12-20T17:14:14.923Z,3.60
2017-12-20T17:16:43.579Z,3.60
2017-12-20T17:19:10.773Z,3.60
2017-12-20T17:21:37.280Z,3.50
2017-12-20T17:24:11.018Z,3.50
2017-12-20T17:26:39.271Z,3.50
2017-12-20T17:29:06.586Z,3.50
2017-12-20T17:31:40.724Z,3.40
2017-12-20T17:34:07.571Z,3.40
2017-12-20T17:36:34.367Z,3.40
2017-12-20T17:39:03.001Z,3.40
2017-12-20T17:41:30.103Z,3.30
2017-12-20T17:43:57.048Z,3.30
2017-12-20T17:46:24.238Z,3.40
2017-12-20T17:48:52.494Z,3.40
2017-12-20T17:51:19.011Z,3.40
2017-12-20T17:53:46.024Z,3.50
2017-12-20T17:56:13.039Z,3.60
2017-12-20T17:58:42.644Z,3.60
2017-12-20T18:01:09.593Z,3.60
2017-12-20T18:03:36.900Z,3.60
2017-12-20T18:06:04.458Z,3.50
2017-12-20T18:08:32.096Z,3.50
2017-12-20T18:10:59.757Z,3.40
2017-12-20T18:13:29.311Z,3.40
2017-12-20T18:15:56.528Z,3.40
2017-12-20T18:18:23.279Z,3.50
2017-12-20T18:20:51.084Z,3.50
2017-12-20T18:23:18.245Z,3.50
2017-12-20T18:25:44.739Z,3.60
2017-12-20T18:28:12.172Z,3.50
2017-12-20T18:30:39.277Z,3.50
2017-12-20T18:33:08.343Z,3.50
2017-12-20T18:35:35.946Z,3.40
2017-12-20T18:38:02.803Z,3.50
2017-12-20T18:40:29.667Z,3.50
2017-12-20T18:42:56.448Z,3.40
2017-12-20T18:45:23.724Z,3.30
2017-12-20T18:47:51.487Z,3.20
2017-12-20T18:50:18.649Z,3.20
2017-12-20T18:52:47.384Z,3.30
2017-12-20T18:55:14.239Z,3.30
2017-12-20T18:57:41.527Z,3.30
2017-12-20T19:00:09.347Z,3.20
2017-12-20T19:02:35.854Z,3.30
2017-12-20T19:05:03.673Z,3.20
2017-12-20T19:07:30.917Z,3.20
2017-12-20T19:09:58.011Z,3.30
2017-12-20T19:12:25.088Z,3.40
2017-12-20T19:14:53.175Z,3.50
2017-12-20T19:17:20.674Z,3.40
2017-12-20T19:19:47.921Z,3.40
2017-12-20T19:22:15.159Z,3.50
2017-12-20T19:24:42.530Z,3.40
2017-12-20T19:30:07.199Z,3.50
2017-12-20T19:32:34.282Z,3.50
2017-12-20T19:35:01.702Z,3.50
2017-12-20T19:37:29.291Z,3.50
2017-12-20T19:39:57.623Z,3.40
2017-12-20T19:42:24.203Z,3.40
2017-12-20T19:44:52.681Z,3.50
2017-12-20T19:47:20.018Z,3.50
2017-12-20T19:49:46.827Z,3.50
2017-12-20T19:52:15.118Z,3.50
2017-12-20T19:54:42.145Z,3.50
2017-12-20T19:57:10.034Z,3.40
2017-12-20T19:59:37.080Z,3.50
2017-12-20T20:02:04.632Z,3.60
2017-12-20T20:04:32.635Z,3.60
2017-12-20T20:07:00.760Z,3.70
2017-12-20T20:09:29.220Z,3.70
2017-12-20T20:11:56.917Z,3.60
2017-12-20T20:14:29.916Z,3.60
2017-12-20T20:16:57.954Z,3.50
2017-12-20T20:19:26.222Z,3.50
2017-12-20T20:21:54.487Z,3.40
2017-12-20T20:24:22.608Z,3.40
2017-12-20T20:26:52.948Z,3.30
2017-12-20T20:29:20.919Z,3.30
2017-12-20T20:31:48.376Z,3.20
2017-12-20T20:34:17.068Z,3.30
2017-12-20T20:36:45.745Z,3.40
2017-12-20T20:39:13.259Z,3.40
2017-12-20T20:41:40.982Z,3.40
2017-12-20T20:44:08.725Z,3.50
2017-12-20T20:46:36.518Z,3.60
2017-12-20T20:49:04.179Z,3.40
2017-12-20T20:51:31.914Z,3.30
2017-12-20T20:53:59.832Z,3.20
2017-12-20T20:56:28.416Z,3.10
2017-12-20T20:58:56.503Z,3.10
2017-12-20T21:01:24.216Z,3.30
2017-12-20T21:03:51.699Z,3.30
2017-12-20T21:06:19.335Z,3.30
2017-12-20T21:08:47.570Z,3.50
2017-12-20T21:11:14.814Z,3.50
2017-12-20T21:13:41.564Z,3.50
2017-12-20T21:16:15.811Z,3.60
2017-12-20T21:18:43.680Z,3.60
2017-12-20T21:21:11.422Z,3.40
2017-12-20T21:23:39.050Z,3.40
2017-12-20T21:26:06.054Z,3.40
2017-12-20T21:28:33.653Z,3.30
2017-12-20T21:31:00.602Z,3.30
2017-12-20T21:33:28.117Z,3.30
2017-12-20T21:35:56.033Z,3.50
2017-12-20T21:38:22.992Z,3.40
2017-12-20T21:40:49.871Z,3.60
2017-12-20T21:43:17.439Z,3.70
2017-12-20T21:45:44.832Z,3.60
2017-12-20T21:48:13.414Z,3.50
2017-12-20T21:50:41.026Z,3.50
2017-12-20T21:53:08.149Z,3.50
2017-12-20T21:55:36.341Z,3.70
2017-12-20T21:58:03.424Z,3.60
2017-12-20T22:00:30.538Z,3.60
2017-12-20T22:02:58.219Z,3.50
2017-12-20T22:05:25.636Z,3.50
2017-12-20T22:07:53.531Z,3.20
2017-12-20T22:10:21.438Z,3.20
2017-12-20T22:12:47.980Z,3.20
2017-12-20T22:15:15.236Z,3.20
2017-12-20T22:17:42.070Z,3.10
2017-12-20T22:20:09.094Z,3.20
2017-12-20T22:22:36.952Z,3.30
2017-12-20T22:25:04.176Z,3.30
2017-12-20T22:27:31.071Z,3.20
2017-12-20T22:29:58.603Z,3.30
2017-12-20T22:32:25.485Z,3.30
2017-12-20T22:34:53.422Z,3.40
2017-12-20T22:37:20.235Z,3.40
2017-12-20T22:39:48.666Z,3.20
2017-12-20T22:42:15.602Z,3.20
2017-12-20T22:44:42.493Z,3.30
2017-12-20T22:47:10.871Z,3.40
2017-12-20T22:49:38.626Z,3.50
2017-12-20T22:52:05.573Z,3.40
2017-12-20T22:54:32.622Z,3.50
2017-12-20T22:57:01.232Z,3.30
2017-12-20T22:59:28.589Z,3.20
2017-12-20T23:01:56.305Z,3.40
2017-12-20T23:04:24.610Z,3.30
2017-12-20T23:06:52.017Z,3.40
2017-12-20T23:09:25.922Z,3.40
2017-12-20T23:11:53.646Z,3.50
2017-12-20T23:14:23.238Z,3.50
2017-12-20T23:16:50.388Z,3.50
2017-12-20T23:19:17.168Z,3.50
2017-12-20T23:21:44.579Z,3.60
2017-12-20T23:24:11.223Z,3.60
2017-12-20T23:26:38.315Z,3.60
2017-12-20T23:29:05.194Z,3.50
2017-12-20T23:31:33.084Z,3.40
2017-12-20T23:34:00.042Z,3.40
2017-12-20T23:36:26.734Z,3.40
2017-12-20T23:38:53.472Z,3.50
2017-12-20T23:41:20.123Z,3.50
2017-12-20T23:43:47.122Z,3.50
2017-12-20T23:46:14.114Z,3.50
2017-12-20T23:48:41.122Z,3.40
2017-12-20T23:51:07.735Z,3.40
2017-12-20T23:53:35.315Z,3.50
2017-12-20T23:56:02.985Z,3.60
2017-12-20T23:58:30.611Z,3.60
